TVS4591 LKKV-LKMT
Flight info
| Callsign | TVS4591 |
|---|---|
| Flight time | 0h 47m |
| Altitude | 21000 |
| Route | BALTU DCT OKL DCT VOZ DCT BODAL DCT BNO DCT UPLAV |
| Aircraft | B738/M-SDE3FGHIJ1RWXYZ/LB1 |
Departure
| Time | 2026-05-06 19:03 |
|---|---|
| Airport | Karlovy Vary Airport (LKKV) |
Arrival
| Time | 2026-05-06 19:50 |
|---|---|
| Airport | Leoš Janáček Airport Ostrava (LKMT) |
| Time | Latitude | Longitude | Altitude | Speed | Heading |
|---|---|---|---|---|---|
| 2026-05-06 18:17 | 50.20199 | 12.91127 | 1993 ft | 0 kts | 204° |
| 2026-05-06 18:52 | 50.20205 | 12.91132 | 1994 ft | 4 kts | 200° |
| 2026-05-06 18:52 | 50.20230 | 12.91137 | 1994 ft | 4 kts | 161° |
| 2026-05-06 18:52 | 50.20250 | 12.91116 | 1993 ft | 4 kts | 115° |
| 2026-05-06 18:53 | 50.20253 | 12.91104 | 1994 ft | 0 kts | 105° |
| 2026-05-06 18:57 | 50.20252 | 12.91112 | 1994 ft | 3 kts | 105° |
| 2026-05-06 18:57 | 50.20259 | 12.91171 | 1994 ft | 8 kts | 54° |
| 2026-05-06 18:58 | 50.20302 | 12.91211 | 1997 ft | 2 kts | 24° |
| 2026-05-06 18:58 | 50.20303 | 12.91212 | 1998 ft | 0 kts | 24° |
| 2026-05-06 18:58 | 50.20312 | 12.91218 | 2000 ft | 3 kts | 23° |
| 2026-05-06 18:58 | 50.20349 | 12.91243 | 2000 ft | 7 kts | 20° |
| 2026-05-06 18:59 | 50.20388 | 12.91211 | 2001 ft | 7 kts | 295° |
| 2026-05-06 18:59 | 50.20409 | 12.91136 | 2001 ft | 9 kts | 294° |
| 2026-05-06 18:59 | 50.20446 | 12.91003 | 1999 ft | 18 kts | 293° |
| 2026-05-06 18:59 | 50.20499 | 12.90809 | 1996 ft | 21 kts | 293° |
| 2026-05-06 19:00 | 50.20554 | 12.90605 | 1991 ft | 20 kts | 293° |
| 2026-05-06 19:00 | 50.20603 | 12.90425 | 1991 ft | 16 kts | 290° |
| 2026-05-06 19:00 | 50.20645 | 12.90266 | 1994 ft | 15 kts | 294° |
| 2026-05-06 19:00 | 50.20659 | 12.90183 | 1996 ft | 8 kts | 271° |
| 2026-05-06 19:01 | 50.20675 | 12.90160 | 1995 ft | 1 kts | 53° |
| 2026-05-06 19:01 | 50.20670 | 12.90182 | 1997 ft | 3 kts | 110° |
| 2026-05-06 19:01 | 50.20670 | 12.90184 | 1997 ft | 0 kts | 111° |
| 2026-05-06 19:02 | 50.20659 | 12.90228 | 1995 ft | 26 kts | 112° |
| 2026-05-06 19:02 | 50.20481 | 12.90878 | 1998 ft | 101 kts | 113° |
| 2026-05-06 19:02 | 50.20127 | 12.92155 | 2120 ft | 146 kts | 114° |
| 2026-05-06 19:03 | 50.19728 | 12.93631 | 2815 ft | 156 kts | 113° |
| 2026-05-06 19:03 | 50.19275 | 12.95285 | 3417 ft | 166 kts | 113° |
| 2026-05-06 19:03 | 50.18813 | 12.96966 | 4028 ft | 175 kts | 114° |
| 2026-05-06 19:03 | 50.18312 | 12.98796 | 4306 ft | 190 kts | 114° |
| 2026-05-06 19:04 | 50.17755 | 13.00818 | 4626 ft | 214 kts | 114° |
| 2026-05-06 19:04 | 50.17199 | 13.02879 | 5588 ft | 200 kts | 114° |
| 2026-05-06 19:04 | 50.16622 | 13.04958 | 6016 ft | 223 kts | 115° |
| 2026-05-06 19:04 | 50.15959 | 13.07329 | 6261 ft | 254 kts | 115° |
| 2026-05-06 19:05 | 50.15225 | 13.09976 | 6697 ft | 275 kts | 115° |
| 2026-05-06 19:05 | 50.14458 | 13.12751 | 7455 ft | 280 kts | 115° |
| 2026-05-06 19:05 | 50.13686 | 13.15547 | 8218 ft | 285 kts | 116° |
| 2026-05-06 19:05 | 50.12904 | 13.18389 | 8643 ft | 285 kts | 116° |
| 2026-05-06 19:06 | 50.12106 | 13.21267 | 8743 ft | 294 kts | 116° |
| 2026-05-06 19:06 | 50.11294 | 13.24195 | 8750 ft | 295 kts | 116° |
| 2026-05-06 19:06 | 50.10483 | 13.27118 | 8758 ft | 292 kts | 116° |
| 2026-05-06 19:06 | 50.09663 | 13.30044 | 9017 ft | 297 kts | 116° |
| 2026-05-06 19:07 | 50.08962 | 13.33091 | 9920 ft | 303 kts | 101° |
| 2026-05-06 19:07 | 50.08870 | 13.35290 | 10355 ft | 314 kts | 92° |
| 2026-05-06 19:07 | 50.08913 | 13.40034 | 11019 ft | 337 kts | 90° |
| 2026-05-06 19:07 | 50.08980 | 13.43716 | 11824 ft | 342 kts | 90° |
| 2026-05-06 19:08 | 50.09046 | 13.47448 | 12754 ft | 345 kts | 91° |
| 2026-05-06 19:08 | 50.09102 | 13.51166 | 13651 ft | 350 kts | 91° |
| 2026-05-06 19:08 | 50.09150 | 13.55047 | 14455 ft | 356 kts | 91° |
| 2026-05-06 19:08 | 50.09191 | 13.58865 | 15295 ft | 359 kts | 92° |
| 2026-05-06 19:09 | 50.09228 | 13.62747 | 16299 ft | 358 kts | 92° |
| 2026-05-06 19:09 | 50.09261 | 13.66605 | 17389 ft | 352 kts | 92° |
| 2026-05-06 19:09 | 50.09292 | 13.70423 | 18306 ft | 354 kts | 92° |
| 2026-05-06 19:09 | 50.09320 | 13.74240 | 19249 ft | 349 kts | 92° |
| 2026-05-06 19:10 | 50.09347 | 13.78030 | 20101 ft | 350 kts | 93° |
| 2026-05-06 19:10 | 50.09375 | 13.81830 | 20547 ft | 350 kts | 93° |
| 2026-05-06 19:10 | 50.09401 | 13.85625 | 20760 ft | 351 kts | 94° |
| 2026-05-06 19:10 | 50.09421 | 13.89459 | 20750 ft | 353 kts | 94° |
| 2026-05-06 19:11 | 50.09442 | 13.93224 | 20761 ft | 351 kts | 94° |
| 2026-05-06 19:11 | 50.09463 | 13.97032 | 20762 ft | 351 kts | 94° |
| 2026-05-06 19:11 | 50.09483 | 14.00840 | 20759 ft | 351 kts | 94° |
| 2026-05-06 19:11 | 50.09504 | 14.04651 | 20763 ft | 351 kts | 94° |
| 2026-05-06 19:12 | 50.09517 | 14.07171 | 20777 ft | 351 kts | 94° |
| 2026-05-06 19:12 | 50.09533 | 14.10981 | 20768 ft | 352 kts | 94° |
| 2026-05-06 19:12 | 50.09547 | 14.14800 | 20774 ft | 352 kts | 94° |
| 2026-05-06 19:12 | 50.09563 | 14.18617 | 20777 ft | 351 kts | 94° |
| 2026-05-06 19:13 | 50.09542 | 14.22431 | 20767 ft | 349 kts | 100° |
| 2026-05-06 19:13 | 50.08871 | 14.25967 | 20778 ft | 335 kts | 124° |
| 2026-05-06 19:13 | 50.07484 | 14.28814 | 20775 ft | 327 kts | 142° |
| 2026-05-06 19:13 | 50.05737 | 14.30970 | 20774 ft | 322 kts | 149° |
| 2026-05-06 19:14 | 50.03900 | 14.32978 | 20769 ft | 322 kts | 151° |
| 2026-05-06 19:14 | 50.02054 | 14.34949 | 20773 ft | 321 kts | 151° |
| 2026-05-06 19:14 | 50.00212 | 14.36912 | 20766 ft | 322 kts | 151° |
| 2026-05-06 19:14 | 49.98367 | 14.38884 | 20776 ft | 322 kts | 150° |
| 2026-05-06 19:15 | 49.96516 | 14.40870 | 20774 ft | 323 kts | 151° |
| 2026-05-06 19:15 | 49.94619 | 14.42910 | 20794 ft | 341 kts | 150° |
| 2026-05-06 19:15 | 49.92607 | 14.45076 | 20782 ft | 359 kts | 150° |
| 2026-05-06 19:15 | 49.90539 | 14.47312 | 20757 ft | 363 kts | 150° |
| 2026-05-06 19:16 | 49.88472 | 14.49556 | 20748 ft | 362 kts | 150° |
| 2026-05-06 19:16 | 49.86405 | 14.51800 | 20739 ft | 361 kts | 150° |
| 2026-05-06 19:16 | 49.84349 | 14.54033 | 20736 ft | 360 kts | 150° |
| 2026-05-06 19:16 | 49.82322 | 14.56230 | 20737 ft | 359 kts | 150° |
| 2026-05-06 19:17 | 49.80271 | 14.58450 | 20741 ft | 359 kts | 150° |
| 2026-05-06 19:17 | 49.78227 | 14.60658 | 20741 ft | 359 kts | 150° |
| 2026-05-06 19:17 | 49.76169 | 14.62879 | 20729 ft | 358 kts | 151° |
| 2026-05-06 19:17 | 49.74121 | 14.65085 | 20738 ft | 359 kts | 151° |
| 2026-05-06 19:18 | 49.72092 | 14.67269 | 20738 ft | 360 kts | 151° |
| 2026-05-06 19:18 | 49.70032 | 14.69484 | 20741 ft | 360 kts | 151° |
| 2026-05-06 19:18 | 49.67970 | 14.71699 | 20748 ft | 361 kts | 151° |
| 2026-05-06 19:18 | 49.65897 | 14.73922 | 20736 ft | 362 kts | 151° |
| 2026-05-06 19:19 | 49.63829 | 14.76140 | 20741 ft | 362 kts | 151° |
| 2026-05-06 19:19 | 49.61746 | 14.78372 | 20739 ft | 363 kts | 151° |
| 2026-05-06 19:19 | 49.59670 | 14.80593 | 20739 ft | 363 kts | 151° |
| 2026-05-06 19:19 | 49.57624 | 14.82780 | 20739 ft | 363 kts | 151° |
| 2026-05-06 19:20 | 49.55557 | 14.85027 | 20738 ft | 365 kts | 147° |
| 2026-05-06 19:20 | 49.53855 | 14.88003 | 20739 ft | 378 kts | 126° |
| 2026-05-06 19:20 | 49.52844 | 14.91795 | 20730 ft | 390 kts | 107° |
| 2026-05-06 19:20 | 49.52479 | 14.95970 | 20724 ft | 393 kts | 101° |
| 2026-05-06 19:21 | 49.52207 | 15.00108 | 20731 ft | 394 kts | 101° |
| 2026-05-06 19:21 | 49.51941 | 15.04326 | 20737 ft | 394 kts | 101° |
| 2026-05-06 19:21 | 49.51669 | 15.08532 | 20740 ft | 394 kts | 101° |
| 2026-05-06 19:21 | 49.51383 | 15.12745 | 20742 ft | 394 kts | 101° |
| 2026-05-06 19:22 | 49.51091 | 15.16885 | 20738 ft | 395 kts | 101° |
| 2026-05-06 19:22 | 49.50787 | 15.21087 | 20747 ft | 395 kts | 101° |
| 2026-05-06 19:22 | 49.50477 | 15.25291 | 20749 ft | 395 kts | 102° |
| 2026-05-06 19:22 | 49.50162 | 15.29502 | 20748 ft | 396 kts | 102° |
| 2026-05-06 19:23 | 49.49846 | 15.33719 | 20751 ft | 396 kts | 102° |
| 2026-05-06 19:23 | 49.49528 | 15.37928 | 20745 ft | 395 kts | 102° |
| 2026-05-06 19:23 | 49.49219 | 15.42060 | 20731 ft | 394 kts | 102° |
| 2026-05-06 19:23 | 49.48902 | 15.46243 | 20735 ft | 393 kts | 102° |
| 2026-05-06 19:24 | 49.48581 | 15.50428 | 20738 ft | 393 kts | 102° |
| 2026-05-06 19:24 | 49.48258 | 15.54610 | 20744 ft | 393 kts | 102° |
| 2026-05-06 19:24 | 49.47934 | 15.58784 | 20742 ft | 393 kts | 102° |
| 2026-05-06 19:24 | 49.47609 | 15.62968 | 20747 ft | 393 kts | 102° |
| 2026-05-06 19:25 | 49.47285 | 15.67149 | 20743 ft | 394 kts | 102° |
| 2026-05-06 19:25 | 49.46958 | 15.71322 | 20743 ft | 394 kts | 102° |
| 2026-05-06 19:25 | 49.46611 | 15.75502 | 20743 ft | 392 kts | 105° |
| 2026-05-06 19:25 | 49.45929 | 15.79522 | 20738 ft | 385 kts | 116° |
| 2026-05-06 19:26 | 49.44827 | 15.83229 | 20718 ft | 380 kts | 123° |
| 2026-05-06 19:26 | 49.43608 | 15.86777 | 20729 ft | 380 kts | 124° |
| 2026-05-06 19:26 | 49.42356 | 15.90370 | 20734 ft | 380 kts | 124° |
| 2026-05-06 19:26 | 49.41307 | 15.94117 | 20723 ft | 388 kts | 110° |
| 2026-05-06 19:27 | 49.40895 | 15.98316 | 20751 ft | 396 kts | 96° |
| 2026-05-06 19:27 | 49.41062 | 16.02512 | 20747 ft | 402 kts | 86° |
| 2026-05-06 19:27 | 49.41491 | 16.06760 | 20747 ft | 403 kts | 84° |
| 2026-05-06 19:27 | 49.41953 | 16.11011 | 20742 ft | 404 kts | 84° |
| 2026-05-06 19:28 | 49.42421 | 16.15269 | 20740 ft | 404 kts | 84° |
| 2026-05-06 19:28 | 49.42880 | 16.19524 | 20737 ft | 403 kts | 84° |
| 2026-05-06 19:28 | 49.43330 | 16.23792 | 20738 ft | 403 kts | 85° |
| 2026-05-06 19:28 | 49.43769 | 16.28039 | 20741 ft | 400 kts | 85° |
| 2026-05-06 19:29 | 49.44200 | 16.32285 | 20747 ft | 402 kts | 85° |
| 2026-05-06 19:29 | 49.44626 | 16.36530 | 20750 ft | 403 kts | 85° |
| 2026-05-06 19:29 | 49.45047 | 16.40744 | 20745 ft | 403 kts | 85° |
| 2026-05-06 19:29 | 49.45472 | 16.45016 | 20742 ft | 403 kts | 85° |
| 2026-05-06 19:30 | 49.45895 | 16.49288 | 20750 ft | 403 kts | 85° |
| 2026-05-06 19:30 | 49.46317 | 16.53560 | 20753 ft | 403 kts | 85° |
| 2026-05-06 19:30 | 49.46735 | 16.57818 | 20752 ft | 403 kts | 85° |
| 2026-05-06 19:30 | 49.47151 | 16.62074 | 20756 ft | 402 kts | 85° |
| 2026-05-06 19:31 | 49.47565 | 16.66329 | 20718 ft | 403 kts | 85° |
| 2026-05-06 19:31 | 49.47979 | 16.70597 | 20446 ft | 403 kts | 85° |
| 2026-05-06 19:31 | 49.48816 | 16.79320 | 19956 ft | 418 kts | 85° |
| 2026-05-06 19:32 | 49.49238 | 16.83717 | 19704 ft | 413 kts | 85° |
| 2026-05-06 19:32 | 49.49656 | 16.88072 | 19460 ft | 409 kts | 85° |
| 2026-05-06 19:32 | 49.50068 | 16.92388 | 19219 ft | 406 kts | 85° |
| 2026-05-06 19:32 | 49.50476 | 16.96693 | 18973 ft | 405 kts | 85° |
| 2026-05-06 19:33 | 49.50879 | 17.00966 | 18739 ft | 403 kts | 85° |
| 2026-05-06 19:33 | 49.51280 | 17.05240 | 18502 ft | 403 kts | 85° |
| 2026-05-06 19:33 | 49.51675 | 17.09460 | 18275 ft | 401 kts | 85° |
| 2026-05-06 19:33 | 49.52067 | 17.13656 | 17944 ft | 393 kts | 85° |
| 2026-05-06 19:34 | 49.52452 | 17.17793 | 17469 ft | 387 kts | 85° |
| 2026-05-06 19:34 | 49.52829 | 17.21876 | 16986 ft | 382 kts | 85° |
| 2026-05-06 19:34 | 49.53200 | 17.25902 | 16507 ft | 378 kts | 85° |
| 2026-05-06 19:34 | 49.53561 | 17.29841 | 16036 ft | 374 kts | 85° |
| 2026-05-06 19:35 | 49.53921 | 17.33784 | 15576 ft | 370 kts | 85° |
| 2026-05-06 19:35 | 49.54277 | 17.37700 | 15126 ft | 366 kts | 85° |
| 2026-05-06 19:35 | 49.54628 | 17.41582 | 14671 ft | 364 kts | 85° |
| 2026-05-06 19:35 | 49.54974 | 17.45420 | 14237 ft | 361 kts | 85° |
| 2026-05-06 19:36 | 49.55318 | 17.49244 | 13777 ft | 359 kts | 85° |
| 2026-05-06 19:36 | 49.55658 | 17.53041 | 13309 ft | 356 kts | 85° |
| 2026-05-06 19:36 | 49.55989 | 17.56755 | 12828 ft | 354 kts | 85° |
| 2026-05-06 19:36 | 49.56323 | 17.60509 | 12360 ft | 351 kts | 85° |
| 2026-05-06 19:37 | 49.56651 | 17.64215 | 11912 ft | 348 kts | 85° |
| 2026-05-06 19:37 | 49.56977 | 17.67899 | 11469 ft | 345 kts | 85° |
| 2026-05-06 19:37 | 49.57297 | 17.71549 | 11030 ft | 342 kts | 85° |
| 2026-05-06 19:37 | 49.57509 | 17.73960 | 10746 ft | 340 kts | 85° |
| 2026-05-06 19:38 | 49.57924 | 17.78731 | 10235 ft | 335 kts | 85° |
| 2026-05-06 19:38 | 49.58231 | 17.82236 | 10012 ft | 326 kts | 85° |
| 2026-05-06 19:38 | 49.58529 | 17.85651 | 9840 ft | 316 kts | 86° |
| 2026-05-06 19:38 | 49.58814 | 17.88935 | 9693 ft | 306 kts | 86° |
| 2026-05-06 19:39 | 49.59093 | 17.92181 | 9323 ft | 304 kts | 86° |
| 2026-05-06 19:39 | 49.59366 | 17.95408 | 8980 ft | 302 kts | 86° |
| 2026-05-06 19:39 | 49.59639 | 17.98607 | 8656 ft | 299 kts | 86° |
| 2026-05-06 19:39 | 49.59908 | 18.01761 | 8423 ft | 293 kts | 86° |
| 2026-05-06 19:40 | 49.60170 | 18.04857 | 8143 ft | 291 kts | 86° |
| 2026-05-06 19:40 | 49.60436 | 18.07981 | 7841 ft | 295 kts | 86° |
| 2026-05-06 19:40 | 49.60700 | 18.11117 | 7510 ft | 294 kts | 86° |
| 2026-05-06 19:40 | 49.60965 | 18.14252 | 7188 ft | 293 kts | 87° |
| 2026-05-06 19:41 | 49.61226 | 18.17374 | 6864 ft | 293 kts | 87° |
| 2026-05-06 19:41 | 49.61758 | 18.20370 | 6518 ft | 299 kts | 64° |
| 2026-05-06 19:41 | 49.63042 | 18.22908 | 6243 ft | 300 kts | 48° |
| 2026-05-06 19:41 | 49.64493 | 18.25224 | 5891 ft | 299 kts | 47° |
| 2026-05-06 19:42 | 49.65946 | 18.27513 | 5551 ft | 297 kts | 48° |
| 2026-05-06 19:42 | 49.67366 | 18.29768 | 5404 ft | 290 kts | 48° |
| 2026-05-06 19:42 | 49.68765 | 18.32014 | 5196 ft | 289 kts | 49° |
| 2026-05-06 19:42 | 49.70156 | 18.34265 | 4988 ft | 289 kts | 50° |
| 2026-05-06 19:43 | 49.71545 | 18.36522 | 4801 ft | 291 kts | 50° |
| 2026-05-06 19:43 | 49.72945 | 18.38792 | 4606 ft | 292 kts | 50° |
| 2026-05-06 19:43 | 49.74359 | 18.41057 | 4407 ft | 293 kts | 48° |
| 2026-05-06 19:43 | 49.76071 | 18.42693 | 4164 ft | 297 kts | 14° |
| 2026-05-06 19:44 | 49.78074 | 18.42650 | 3958 ft | 284 kts | 336° |
| 2026-05-06 19:44 | 49.79612 | 18.40996 | 3762 ft | 262 kts | 298° |
| 2026-05-06 19:44 | 49.80267 | 18.38529 | 3598 ft | 243 kts | 280° |
| 2026-05-06 19:44 | 49.81147 | 18.36242 | 3393 ft | 250 kts | 304° |
| 2026-05-06 19:45 | 49.82152 | 18.34174 | 3184 ft | 229 kts | 283° |
| 2026-05-06 19:45 | 49.82201 | 18.31968 | 3041 ft | 191 kts | 239° |
| 2026-05-06 19:45 | 49.81443 | 18.30522 | 3008 ft | 162 kts | 219° |
| 2026-05-06 19:45 | 49.80747 | 18.29134 | 3007 ft | 162 kts | 227° |
| 2026-05-06 19:46 | 49.79998 | 18.27829 | 3004 ft | 163 kts | 221° |
| 2026-05-06 19:46 | 49.79208 | 18.26569 | 3012 ft | 166 kts | 221° |
| 2026-05-06 19:46 | 49.78412 | 18.25289 | 2946 ft | 162 kts | 220° |
| 2026-05-06 19:46 | 49.77656 | 18.24069 | 2782 ft | 151 kts | 221° |
| 2026-05-06 19:47 | 49.76951 | 18.22927 | 2580 ft | 139 kts | 220° |
| 2026-05-06 19:47 | 49.76336 | 18.21931 | 2457 ft | 120 kts | 219° |
| 2026-05-06 19:47 | 49.75795 | 18.21059 | 2298 ft | 112 kts | 220° |
| 2026-05-06 19:47 | 49.75230 | 18.20153 | 2155 ft | 119 kts | 222° |
| 2026-05-06 19:48 | 49.74645 | 18.19197 | 1992 ft | 123 kts | 220° |
| 2026-05-06 19:48 | 49.74055 | 18.18249 | 1811 ft | 121 kts | 221° |
| 2026-05-06 19:48 | 49.73478 | 18.17317 | 1670 ft | 121 kts | 222° |
| 2026-05-06 19:48 | 49.72897 | 18.16371 | 1472 ft | 124 kts | 223° |
| 2026-05-06 19:49 | 49.72280 | 18.15390 | 1357 ft | 130 kts | 223° |
| 2026-05-06 19:49 | 49.71664 | 18.14377 | 1160 ft | 125 kts | 225° |
| 2026-05-06 19:49 | 49.71086 | 18.13432 | 982 ft | 121 kts | 225° |
| 2026-05-06 19:49 | 49.70512 | 18.12510 | 834 ft | 118 kts | 221° |
| 2026-05-06 19:50 | 49.69998 | 18.11692 | 826 ft | 91 kts | 227° |
| 2026-05-06 19:50 | 49.69679 | 18.11177 | 832 ft | 35 kts | 227° |
| 2026-05-06 19:50 | 49.69524 | 18.10931 | 833 ft | 30 kts | 226° |
| 2026-05-06 19:50 | 49.69386 | 18.10707 | 826 ft | 28 kts | 227° |
| 2026-05-06 19:51 | 49.69248 | 18.10491 | 840 ft | 29 kts | 226° |
| 2026-05-06 19:51 | 49.69104 | 18.10259 | 836 ft | 29 kts | 225° |
| 2026-05-06 19:51 | 49.68981 | 18.10064 | 836 ft | 13 kts | 220° |
| 2026-05-06 19:51 | 49.68912 | 18.10099 | 842 ft | 11 kts | 136° |
| 2026-05-06 19:52 | 49.68873 | 18.10155 | 841 ft | 11 kts | 137° |
| 2026-05-06 19:52 | 49.68817 | 18.10235 | 838 ft | 11 kts | 137° |
| 2026-05-06 19:52 | 49.68794 | 18.10269 | 836 ft | 4 kts | 136° |
| 2026-05-06 19:52 | 49.68774 | 18.10296 | 830 ft | 4 kts | 137° |
| 2026-05-06 19:53 | 49.68753 | 18.10335 | 841 ft | 6 kts | 117° |
| 2026-05-06 19:53 | 49.68779 | 18.10419 | 833 ft | 13 kts | 46° |
| 2026-05-06 19:53 | 49.68863 | 18.10556 | 840 ft | 22 kts | 47° |
| 2026-05-06 19:53 | 49.68978 | 18.10741 | 831 ft | 24 kts | 47° |
| 2026-05-06 19:54 | 49.69092 | 18.10927 | 834 ft | 23 kts | 46° |
| 2026-05-06 19:54 | 49.69204 | 18.11107 | 831 ft | 23 kts | 46° |
| 2026-05-06 19:54 | 49.69317 | 18.11290 | 833 ft | 23 kts | 46° |
| 2026-05-06 19:54 | 49.69429 | 18.11471 | 831 ft | 23 kts | 47° |
| 2026-05-06 19:55 | 49.69542 | 18.11655 | 829 ft | 24 kts | 46° |
| 2026-05-06 19:55 | 49.69613 | 18.11783 | 828 ft | 10 kts | 78° |
| 2026-05-06 19:55 | 49.69598 | 18.11882 | 828 ft | 9 kts | 72° |
| 2026-05-06 19:55 | 49.69619 | 18.11960 | 827 ft | 5 kts | 117° |
| 2026-05-06 19:56 | 49.69606 | 18.11986 | 827 ft | 0 kts | 158° |